Englewood Beach, Florida
Current Conditions -  °F | °C
As of 12:45 PM on Tuesday 21 Oct 2014 (Local Time) from KPGD Reporting Station
Broken Clouds Broken Clouds  
Wind Chill: 83°   Ceiling: 2400
Heat Index: 88°   Visibility: 10mi
Dew Point: 72°   Wind: 6mph
Humidity: 69%   Direction: 230°SW
Pressure: 29.97"   Gusts: NA
Location:  26.9866°N, 82.345°W
Report Text: KPGD 211645Z 23005KT 10SM BKN024 BKN065 28/22 A2997 RMK AO2 T02830222
Loading
Personal Weather Stations






























Interactive Weather Map
Tropical Storm Tracking
New forecast layout! Learn more

10-Day Weather Forecast

Advertisements
Track Severe Weather on mobile